createdAt,value
2016-12-28T00:00:28.295Z,19.16
2016-12-28T00:01:38.554Z,19.22
2016-12-28T00:02:47.881Z,19.12
2016-12-28T00:03:58.149Z,19.22
2016-12-28T00:05:08.121Z,19.19
2016-12-28T00:06:18.379Z,19.15
2016-12-28T00:07:28.654Z,19.23
2016-12-28T00:08:38.923Z,19.19
2016-12-28T00:09:49.198Z,19.2
2016-12-28T00:10:59.153Z,19.15
2016-12-28T00:12:08.798Z,19.16
2016-12-28T00:13:18.763Z,19.23
2016-12-28T00:14:28.411Z,19.09
2016-12-28T00:15:38.388Z,19.17
2016-12-28T00:16:48.667Z,19.16
2016-12-28T00:17:58.625Z,19.15
2016-12-28T00:19:08.897Z,19.2
2016-12-28T00:20:18.859Z,19.15
2016-12-28T00:21:28.810Z,19.17
2016-12-28T00:22:38.766Z,19.19
2016-12-28T00:23:48.731Z,19.04
2016-12-28T00:24:58.993Z,19.15
2016-12-28T00:26:09.279Z,19.17
2016-12-28T00:27:19.230Z,19.2
2016-12-28T00:28:29.514Z,19.16
2016-12-28T00:29:39.787Z,19.16
2016-12-28T00:30:50.044Z,19.15
2016-12-28T00:32:00.027Z,19.17
2016-12-28T00:33:09.979Z,19.2
2016-12-28T00:34:19.935Z,19.2
2016-12-28T00:35:30.210Z,19.2
2016-12-28T00:36:40.156Z,19.2
2016-12-28T00:37:50.104Z,19.17
2016-12-28T00:39:00.085Z,19.2
2016-12-28T00:40:10.366Z,19.16
2016-12-28T00:41:20.035Z,19.16
2016-12-28T00:42:29.996Z,19.2
2016-12-28T00:43:39.950Z,19.16
2016-12-28T00:44:49.893Z,19.17
2016-12-28T00:46:00.152Z,19.16
2016-12-28T00:47:10.417Z,19.15
2016-12-28T00:48:20.693Z,19.19
2016-12-28T00:49:30.325Z,19.16
2016-12-28T00:50:40.594Z,19.15
2016-12-28T00:51:50.548Z,19.16
2016-12-28T00:53:00.491Z,19.17
2016-12-28T00:54:10.770Z,19.16
2016-12-28T00:55:20.710Z,19.12
2016-12-28T00:56:30.670Z,19.17
2016-12-28T00:57:40.974Z,19.16
2016-12-28T00:58:51.237Z,19.19
2016-12-28T01:00:01.499Z,19.17
2016-12-28T01:01:11.457Z,19.12
2016-12-28T01:02:21.108Z,19.17
2016-12-28T01:03:31.378Z,19.19
2016-12-28T01:04:41.630Z,19.2
2016-12-28T01:05:51.589Z,19.17
2016-12-28T01:07:01.854Z,19.16
2016-12-28T01:08:11.803Z,19.15
2016-12-28T01:09:22.069Z,19.12
2016-12-28T01:10:32.085Z,19.12
2016-12-28T01:11:42.347Z,19.17
2016-12-28T01:12:52.706Z,19.2
2016-12-28T01:14:02.676Z,19.17
2016-12-28T01:15:12.946Z,19.2
2016-12-28T01:16:22.597Z,19.16
2016-12-28T01:17:32.865Z,19.22
2016-12-28T01:18:43.118Z,19.2
2016-12-28T01:19:53.078Z,19.23
2016-12-28T01:21:02.737Z,19.15
2016-12-28T01:22:13.010Z,19.15
2016-12-28T01:23:23.268Z,19.19
2016-12-28T01:24:33.240Z,19.17
2016-12-28T01:25:43.179Z,19.17
2016-12-28T01:26:52.533Z,19.16
2016-12-28T01:28:02.804Z,19.16
2016-12-28T01:29:12.443Z,19.17
2016-12-28T01:30:22.705Z,19.19
2016-12-28T01:31:32.971Z,19.17
2016-12-28T01:32:42.926Z,19.23
2016-12-28T01:33:52.555Z,19.22
2016-12-28T01:35:02.856Z,19.16
2016-12-28T01:36:13.111Z,19.16
2016-12-28T01:37:22.759Z,19.16
2016-12-28T01:38:32.747Z,19.23
2016-12-28T01:39:42.705Z,19.15
2016-12-28T01:40:52.033Z,19.11
2016-12-28T01:42:01.988Z,19.23
2016-12-28T01:43:11.943Z,19.17
2016-12-28T01:44:21.911Z,19.17
2016-12-28T01:45:31.556Z,19.19
2016-12-28T01:46:41.205Z,19.15
2016-12-28T01:47:50.842Z,19.12
2016-12-28T01:49:00.804Z,19.17
2016-12-28T01:50:11.064Z,19.15
2016-12-28T01:51:20.702Z,19.2
2016-12-28T01:52:30.647Z,19.05
2016-12-28T01:53:40.603Z,19.2
2016-12-28T01:54:50.568Z,19.17
2016-12-28T01:56:00.516Z,19.17
2016-12-28T01:57:10.478Z,19.19
2016-12-28T01:58:20.433Z,19.16
2016-12-28T01:59:30.692Z,19.16
2016-12-28T02:00:40.987Z,19.09
2016-12-28T02:01:50.938Z,19.17
2016-12-28T02:03:01.209Z,19.19
2016-12-28T02:04:10.854Z,19.19
2016-12-28T02:05:21.114Z,19.17
2016-12-28T02:06:31.066Z,19.17
2016-12-28T02:07:41.018Z,19.17
2016-12-28T02:08:51.279Z,19.04
2016-12-28T02:10:01.542Z,19.2
2016-12-28T02:11:11.801Z,19.2
2016-12-28T02:12:21.440Z,19.16
2016-12-28T02:13:31.708Z,19.17
2016-12-28T02:14:41.954Z,19.15
2016-12-28T02:15:52.204Z,19.16
2016-12-28T02:17:02.166Z,19.17
2016-12-28T02:18:12.124Z,19.2
2016-12-28T02:19:22.082Z,19.11
2016-12-28T02:20:31.727Z,19.16
2016-12-28T02:21:41.058Z,19.19
2016-12-28T02:22:51.316Z,19.16
2016-12-28T02:24:01.576Z,19.17
2016-12-28T02:25:11.202Z,19.17
2016-12-28T02:26:21.470Z,19.16
2016-12-28T02:27:31.432Z,19.16
2016-12-28T02:28:41.070Z,19.16
2016-12-28T02:29:51.330Z,19.07
2016-12-28T02:31:01.275Z,19.17
2016-12-28T02:32:11.220Z,19.17
2016-12-28T02:33:20.859Z,19.11
2016-12-28T02:34:30.826Z,19.23
2016-12-28T02:35:40.797Z,19.16
2016-12-28T02:36:50.743Z,19.22
2016-12-28T02:38:00.690Z,19.17
2016-12-28T02:39:10.937Z,19.23
2016-12-28T02:40:20.889Z,19.2
2016-12-28T02:41:30.537Z,19.22
2016-12-28T02:42:40.495Z,19.19
2016-12-28T02:43:50.145Z,19.12
2016-12-28T02:45:00.405Z,19.2
2016-12-28T02:46:10.353Z,19.16
2016-12-28T02:47:20.631Z,19.15
2016-12-28T02:48:30.577Z,19.17
2016-12-28T02:49:40.526Z,19.15
2016-12-28T02:50:50.470Z,19.15
2016-12-28T02:52:00.106Z,19.16
2016-12-28T02:53:10.054Z,19.15
2016-12-28T02:54:19.994Z,19.12
2016-12-28T02:55:29.939Z,19.2
2016-12-28T02:56:40.208Z,19.16
2016-12-28T02:57:49.536Z,19.17
2016-12-28T02:58:59.167Z,19.2
2016-12-28T03:00:09.113Z,19.22
2016-12-28T03:01:18.750Z,19.19
2016-12-28T03:02:28.994Z,19.15
2016-12-28T03:03:38.945Z,19.12
2016-12-28T03:04:49.198Z,19.22
2016-12-28T03:05:59.144Z,19.16
2016-12-28T03:07:08.798Z,19.12
2016-12-28T03:08:18.442Z,19.19
2016-12-28T03:09:28.695Z,19.16
2016-12-28T03:10:38.340Z,19.15
2016-12-28T03:11:48.586Z,19.17
2016-12-28T03:12:58.842Z,19.07
2016-12-28T03:14:09.133Z,19.15
2016-12-28T03:15:19.126Z,19.16
2016-12-28T03:16:29.081Z,19.04
2016-12-28T03:17:39.356Z,19.17
2016-12-28T03:18:49.003Z,19.16
2016-12-28T03:19:59.279Z,19.2
2016-12-28T03:21:09.240Z,19.17
2016-12-28T03:22:19.506Z,19.16
2016-12-28T03:23:29.451Z,19.17
2016-12-28T03:24:39.086Z,19.16
2016-12-28T03:25:48.420Z,19.17
2016-12-28T03:26:58.366Z,19.22
2016-12-28T03:28:08.635Z,19.19
2016-12-28T03:29:18.579Z,19.15
2016-12-28T03:30:28.532Z,19.23
2016-12-28T03:31:38.496Z,19.15
2016-12-28T03:32:47.855Z,19.09
2016-12-28T03:33:58.765Z,19.15
2016-12-28T03:35:09.033Z,19.12
2016-12-28T03:36:18.976Z,19.19
2016-12-28T03:37:28.924Z,19.17
2016-12-28T03:38:39.181Z,19.12
2016-12-28T03:39:49.433Z,19.07
2016-12-28T03:40:59.382Z,19.16
2016-12-28T03:42:09.635Z,19.16
2016-12-28T03:43:19.571Z,19.16
2016-12-28T03:44:29.836Z,19.16
2016-12-28T03:45:39.474Z,19.22
2016-12-28T03:46:49.420Z,19.15
2016-12-28T03:47:59.058Z,19.16
2016-12-28T03:49:08.697Z,19.17
2016-12-28T03:50:18.647Z,19.22
2016-12-28T03:51:28.914Z,19.15
2016-12-28T03:52:39.171Z,19.16
2016-12-28T03:53:49.440Z,19.2
2016-12-28T03:54:59.705Z,19.19
2016-12-28T03:56:09.970Z,19.11
2016-12-28T03:57:20.229Z,19.19
2016-12-28T03:58:30.504Z,19.16
2016-12-28T03:59:40.760Z,19.16
2016-12-28T04:00:51.027Z,19.22
2016-12-28T04:02:01.291Z,19.17
2016-12-28T04:03:10.933Z,19.16
2016-12-28T04:04:21.190Z,19.15
2016-12-28T04:05:30.831Z,19.17
2016-12-28T04:06:40.773Z,19.15
2016-12-28T04:07:50.750Z,19.15
2016-12-28T04:09:00.713Z,19.15
2016-12-28T04:10:10.655Z,19.17
2016-12-28T04:11:20.914Z,19.17
2016-12-28T04:12:31.164Z,19.12
2016-12-28T04:13:41.100Z,19.16
2016-12-28T04:14:51.365Z,19.16
2016-12-28T04:16:01.320Z,19.15
2016-12-28T04:17:11.682Z,19.15
2016-12-28T04:18:21.634Z,19.17
2016-12-28T04:19:31.884Z,19.19
2016-12-28T04:20:42.156Z,19.22
2016-12-28T04:21:52.417Z,19.12
2016-12-28T04:23:02.686Z,19.2
2016-12-28T04:24:12.952Z,19.17
2016-12-28T04:25:22.584Z,19.22
2016-12-28T04:26:32.837Z,19.19
2016-12-28T04:27:42.805Z,19.17
2016-12-28T04:28:52.446Z,19.16
2016-12-28T04:30:02.709Z,19.15
2016-12-28T04:31:12.981Z,19.15
2016-12-28T04:32:23.226Z,19.16
2016-12-28T04:33:33.182Z,19.2
2016-12-28T04:34:43.131Z,19.16
2016-12-28T04:35:53.393Z,19.12
2016-12-28T04:37:03.650Z,19.22
2016-12-28T04:38:13.902Z,19.19
2016-12-28T04:39:24.168Z,19.15
2016-12-28T04:40:34.434Z,19.12
2016-12-28T04:41:44.997Z,19.15
2016-12-28T04:42:54.626Z,19.17
2016-12-28T04:44:04.881Z,19.16
2016-12-28T04:45:14.834Z,19.23
2016-12-28T04:46:24.786Z,19.17
2016-12-28T04:47:34.734Z,19.19
2016-12-28T04:48:44.372Z,19.15
2016-12-28T04:49:54.322Z,19.19
2016-12-28T04:51:04.289Z,19.17
2016-12-28T04:52:14.549Z,19.16
2016-12-28T04:53:24.187Z,19.15
2016-12-28T04:54:34.143Z,19.16
2016-12-28T04:55:44.097Z,19.19
2016-12-28T04:56:54.046Z,19.05
2016-12-28T04:58:04.299Z,19.09
2016-12-28T04:59:13.946Z,19.17
2016-12-28T05:00:23.601Z,19.15
2016-12-28T05:01:33.867Z,19.15
2016-12-28T05:02:44.127Z,19.17
2016-12-28T05:03:54.103Z,19.15
2016-12-28T05:05:03.746Z,19.19
2016-12-28T05:06:14.029Z,19.16
2016-12-28T05:07:23.976Z,19.15
2016-12-28T05:08:33.924Z,19.16
2016-12-28T05:09:43.576Z,19.17
2016-12-28T05:10:53.826Z,19.17
2016-12-28T05:12:04.110Z,19.19
2016-12-28T05:13:14.357Z,19.12
2016-12-28T05:14:23.692Z,19.12
2016-12-28T05:15:33.644Z,19.16
2016-12-28T05:16:43.903Z,19.22
2016-12-28T05:17:53.542Z,19.16
2016-12-28T05:19:03.807Z,19.12
2016-12-28T05:20:13.753Z,19.16
2016-12-28T05:21:24.011Z,19.19
2016-12-28T05:22:33.955Z,19.15
2016-12-28T05:23:43.585Z,19.12
2016-12-28T05:24:53.844Z,19.22
2016-12-28T05:26:03.800Z,19.16
2016-12-28T05:27:13.795Z,19.19
2016-12-28T05:28:23.751Z,19.04
2016-12-28T05:29:33.713Z,19.17
2016-12-28T05:30:43.360Z,19.16
2016-12-28T05:31:53.624Z,19.19
2016-12-28T05:33:03.558Z,19.19
2016-12-28T05:34:13.825Z,19.16
2016-12-28T05:35:24.112Z,19.16
2016-12-28T05:36:34.064Z,19.15
2016-12-28T05:37:44.343Z,19.2
2016-12-28T05:38:53.678Z,19.16
2016-12-28T05:40:03.928Z,19.16
2016-12-28T05:41:13.870Z,19.22
2016-12-28T05:42:24.128Z,19.17
2016-12-28T05:43:34.072Z,19.2
2016-12-28T05:44:43.954Z,19.16
2016-12-28T05:45:53.605Z,19.15
2016-12-28T05:47:03.545Z,19.17
2016-12-28T05:48:13.806Z,19.2
2016-12-28T05:49:23.437Z,19.16
2016-12-28T05:50:33.062Z,19.16
2016-12-28T05:51:43.332Z,19.16
2016-12-28T05:52:53.582Z,19.16
2016-12-28T05:54:03.531Z,19.19
2016-12-28T05:55:13.495Z,19.16
2016-12-28T05:56:23.752Z,19.19
2016-12-28T05:57:34.025Z,19.22
2016-12-28T05:58:43.979Z,19.22
2016-12-28T05:59:54.254Z,19.17
2016-12-28T06:01:04.521Z,19.2
2016-12-28T06:02:14.476Z,19.24
2016-12-28T06:03:24.410Z,19.2
2016-12-28T06:04:34.670Z,19.15
2016-12-28T06:05:44.933Z,19.17
2016-12-28T06:06:54.254Z,19.2
2016-12-28T06:08:03.594Z,19.19
2016-12-28T06:09:13.854Z,19.2
2016-12-28T06:10:23.813Z,19.17
2016-12-28T06:11:33.776Z,19.16
2016-12-28T06:12:44.024Z,19.17
2016-12-28T06:13:53.991Z,19.22
2016-12-28T06:15:03.942Z,19.23
2016-12-28T06:16:13.895Z,19.17
2016-12-28T06:17:23.850Z,19.19
2016-12-28T06:18:34.049Z,19.19
2016-12-28T06:19:44.316Z,19.2
2016-12-28T06:20:54.606Z,19.16
2016-12-28T06:22:04.868Z,19.22
2016-12-28T06:23:15.152Z,19.19
2016-12-28T06:24:25.109Z,19.17
2016-12-28T06:25:35.049Z,19.19
2016-12-28T06:26:44.997Z,19.2
2016-12-28T06:27:54.950Z,19.2
2016-12-28T06:29:05.206Z,19.16
2016-12-28T06:30:15.157Z,19.17
2016-12-28T06:31:25.114Z,19.19
2016-12-28T06:32:35.059Z,19.17
2016-12-28T06:33:45.014Z,19.19
2016-12-28T06:34:54.970Z,19.2
2016-12-28T06:36:04.924Z,19.15
2016-12-28T06:37:14.623Z,19.2
2016-12-28T06:38:24.612Z,19.23
2016-12-28T06:39:34.551Z,19.17
2016-12-28T06:40:44.814Z,19.19
2016-12-28T06:41:54.768Z,19.16
2016-12-28T06:43:04.730Z,19.17
2016-12-28T06:44:15.027Z,19.2
2016-12-28T06:45:24.691Z,19.16
2016-12-28T06:46:34.960Z,19.17
2016-12-28T06:47:45.232Z,19.17
2016-12-28T06:48:54.895Z,19.2
2016-12-28T06:50:05.155Z,19.2
2016-12-28T06:51:15.126Z,19.17
2016-12-28T06:52:25.068Z,19.19
2016-12-28T06:53:35.328Z,19.23
2016-12-28T06:54:45.580Z,19.17
2016-12-28T06:55:55.861Z,19.19
2016-12-28T06:57:05.826Z,19.16
2016-12-28T06:58:15.785Z,19.17
2016-12-28T06:59:26.042Z,19.16
2016-12-28T07:00:36.307Z,19.19
2016-12-28T07:01:46.585Z,19.22
2016-12-28T07:02:56.534Z,19.2
2016-12-28T07:04:05.862Z,19.16
2016-12-28T07:05:15.820Z,19.23
2016-12-28T07:06:26.098Z,19.22
2016-12-28T07:07:36.044Z,19.22
2016-12-28T07:08:46.025Z,19.17
2016-12-28T07:09:55.983Z,19.19
2016-12-28T07:11:05.635Z,19.2
2016-12-28T07:12:15.592Z,19.17
2016-12-28T07:13:25.243Z,19.19
2016-12-28T07:14:35.514Z,19.2
2016-12-28T07:15:45.474Z,19.22
2016-12-28T07:16:55.413Z,19.19
2016-12-28T07:18:05.666Z,19.2
2016-12-28T07:19:15.613Z,19.19
2016-12-28T07:20:25.890Z,19.22
2016-12-28T07:21:35.224Z,19.22
2016-12-28T07:22:45.178Z,19.16
2016-12-28T07:23:55.452Z,19.12
2016-12-28T07:25:05.102Z,19.22
2016-12-28T07:26:15.057Z,19.22
2016-12-28T07:27:25.013Z,19.15
2016-12-28T07:28:35.278Z,19.19
2016-12-28T07:29:45.534Z,19.2
2016-12-28T07:30:55.790Z,19.26
2016-12-28T07:32:05.783Z,19.24
2016-12-28T07:33:15.111Z,19.22
2016-12-28T07:34:24.746Z,19.26
2016-12-28T07:35:34.703Z,19.2
2016-12-28T07:36:44.669Z,19.26
2016-12-28T07:37:54.308Z,19.16
2016-12-28T07:39:03.959Z,19.22
2016-12-28T07:40:13.924Z,19.24
2016-12-28T07:41:23.259Z,19.2
2016-12-28T07:42:33.518Z,19.23
2016-12-28T07:43:43.789Z,19.19
2016-12-28T07:44:54.069Z,19.27
2016-12-28T07:46:04.333Z,19.17
2016-12-28T07:47:14.287Z,19.27
2016-12-28T07:48:24.248Z,19.24
2016-12-28T07:49:33.886Z,19.19
2016-12-28T07:50:43.216Z,19.2
2016-12-28T07:51:52.858Z,19.23
2016-12-28T07:53:03.111Z,19.24
2016-12-28T07:54:12.774Z,19.22
2016-12-28T07:55:23.036Z,19.22
2016-12-28T07:56:33.002Z,19.22
2016-12-28T07:57:42.953Z,19.17
2016-12-28T07:58:53.200Z,19.19
2016-12-28T08:00:03.478Z,19.22
2016-12-28T08:01:13.429Z,19.17
2016-12-28T08:02:23.688Z,19.19
2016-12-28T08:03:33.333Z,19.19
2016-12-28T08:04:43.593Z,19.26
2016-12-28T08:05:53.876Z,19.22
2016-12-28T08:07:03.838Z,19.19
2016-12-28T08:08:13.774Z,19.17
2016-12-28T08:09:23.102Z,19.2
2016-12-28T08:10:33.373Z,19.2
2016-12-28T08:11:43.633Z,19.2
2016-12-28T08:12:53.623Z,19.15
2016-12-28T08:14:03.565Z,19.23
2016-12-28T08:15:13.827Z,19.26
2016-12-28T08:16:23.843Z,19.2
2016-12-28T08:17:34.124Z,19.22
2016-12-28T08:18:43.769Z,19.27
2016-12-28T08:19:54.034Z,19.22
2016-12-28T08:21:03.987Z,19.26
2016-12-28T08:22:14.252Z,19.24
2016-12-28T08:23:24.201Z,19.27
2016-12-28T08:24:34.475Z,19.24
2016-12-28T08:25:44.440Z,19.29
2016-12-28T08:26:54.377Z,19.22
2016-12-28T08:28:03.716Z,19.26
2016-12-28T08:29:13.669Z,19.23
2016-12-28T08:30:23.615Z,19.24
2016-12-28T08:31:33.882Z,19.24
2016-12-28T08:32:43.838Z,19.24
2016-12-28T08:33:53.801Z,19.22
2016-12-28T08:35:04.083Z,19.2
2016-12-28T08:36:14.351Z,19.29
2016-12-28T08:37:24.619Z,19.22
2016-12-28T08:38:34.879Z,19.23
2016-12-28T08:39:44.846Z,19.26
2016-12-28T08:40:54.782Z,19.29
2016-12-28T08:42:04.728Z,19.29
2016-12-28T08:43:14.391Z,19.24
2016-12-28T08:44:24.353Z,19.27
2016-12-28T08:45:34.300Z,19.29
2016-12-28T08:46:44.256Z,19.27
2016-12-28T08:47:54.540Z,19.22
2016-12-28T08:49:04.511Z,19.26
2016-12-28T08:50:14.475Z,19.29
2016-12-28T08:51:24.740Z,19.27
2016-12-28T08:52:34.715Z,19.3
2016-12-28T08:53:44.664Z,19.32
2016-12-28T08:54:54.926Z,19.29
2016-12-28T08:56:05.191Z,19.3
2016-12-28T08:57:15.446Z,19.34
2016-12-28T08:58:25.404Z,19.32
2016-12-28T08:59:35.677Z,19.24
2016-12-28T09:00:45.647Z,19.34
2016-12-28T09:01:55.634Z,19.29
2016-12-28T09:03:05.574Z,19.27
2016-12-28T09:04:15.822Z,19.3
2016-12-28T09:05:26.087Z,19.3
2016-12-28T09:06:36.344Z,19.34
2016-12-28T09:07:46.596Z,19.27
2016-12-28T09:08:56.253Z,19.3
2016-12-28T09:10:05.899Z,19.35
2016-12-28T09:11:15.849Z,19.44
2016-12-28T09:12:25.500Z,19.38
2016-12-28T09:13:35.449Z,19.34
2016-12-28T09:14:45.733Z,19.35
2016-12-28T09:15:55.983Z,19.35
2016-12-28T09:17:05.646Z,19.37
2016-12-28T09:18:15.905Z,19.37
2016-12-28T09:19:25.880Z,19.37
2016-12-28T09:20:35.866Z,19.34
2016-12-28T09:21:46.129Z,19.32
2016-12-28T09:22:55.774Z,19.35
2016-12-28T09:24:06.046Z,19.38
2016-12-28T09:25:16.307Z,19.35
2016-12-28T09:26:26.279Z,19.34
2016-12-28T09:27:36.234Z,19.32
2016-12-28T09:28:46.208Z,19.34
2016-12-28T09:29:55.853Z,19.38
2016-12-28T09:31:06.115Z,19.38
2016-12-28T09:32:16.099Z,19.37
2016-12-28T09:33:26.050Z,19.39
2016-12-28T09:34:36.314Z,19.38
2016-12-28T09:35:46.571Z,19.37
2016-12-28T09:36:56.524Z,19.38
2016-12-28T09:38:06.485Z,19.45
2016-12-28T09:39:16.436Z,19.41
2016-12-28T09:40:26.401Z,19.39
2016-12-28T09:41:36.366Z,19.39
2016-12-28T09:42:46.318Z,19.41
2016-12-28T09:43:56.583Z,19.49
2016-12-28T09:45:06.535Z,19.44
2016-12-28T09:46:16.800Z,19.41
2016-12-28T09:47:27.056Z,19.44
2016-12-28T09:48:36.998Z,19.48
2016-12-28T09:49:46.956Z,19.52
2016-12-28T09:50:56.608Z,19.52
2016-12-28T09:52:06.861Z,19.42
2016-12-28T09:53:16.505Z,19.52
2016-12-28T09:54:26.772Z,19.52
2016-12-28T09:55:36.775Z,19.47
2016-12-28T09:56:47.049Z,19.48
2016-12-28T09:57:57.013Z,19.44
2016-12-28T09:59:06.672Z,19.48
2016-12-28T10:00:16.956Z,19.45
2016-12-28T10:01:26.963Z,19.53
2016-12-28T10:02:37.209Z,19.56
2016-12-28T10:03:47.177Z,19.55
2016-12-28T10:04:57.442Z,19.49
2016-12-28T10:06:07.719Z,19.53
2016-12-28T10:07:17.426Z,19.49
2016-12-28T10:08:27.372Z,19.55
2016-12-28T10:09:37.327Z,19.48
2016-12-28T10:10:47.282Z,19.45
2016-12-28T10:11:57.254Z,19.41
2016-12-28T10:13:07.526Z,19.45
2016-12-28T10:14:17.797Z,19.49
2016-12-28T10:15:27.744Z,19.47
2016-12-28T10:16:37.405Z,19.44
2016-12-28T10:17:47.697Z,19.48
2016-12-28T10:18:56.732Z,19.44
2016-12-28T10:20:06.698Z,19.39
2016-12-28T10:21:16.349Z,19.47
2016-12-28T10:22:26.624Z,19.48
2016-12-28T10:23:36.880Z,19.44
2016-12-28T10:24:46.846Z,19.44
2016-12-28T10:25:56.790Z,19.41
2016-12-28T10:27:06.435Z,19.48
2016-12-28T10:28:16.704Z,19.39
2016-12-28T10:29:26.973Z,19.41
2016-12-28T10:30:36.929Z,19.47
2016-12-28T10:31:46.892Z,19.41
2016-12-28T10:32:56.846Z,19.42
2016-12-28T10:34:06.804Z,19.39
2016-12-28T10:35:17.069Z,19.48
2016-12-28T10:36:27.351Z,19.44
2016-12-28T10:37:36.999Z,19.45
2016-12-28T10:38:47.278Z,19.47
2016-12-28T10:39:57.542Z,19.41
2016-12-28T10:41:07.522Z,19.47
2016-12-28T10:42:17.504Z,19.42
2016-12-28T10:43:27.447Z,19.42
2016-12-28T10:44:37.738Z,19.44
2016-12-28T10:45:47.693Z,19.38
2016-12-28T10:46:57.044Z,19.52
2016-12-28T10:48:07.018Z,19.42
2016-12-28T10:49:16.973Z,19.41
2016-12-28T10:50:26.928Z,19.37
2016-12-28T10:51:37.191Z,19.42
2016-12-28T10:52:47.461Z,19.38
2016-12-28T10:53:57.729Z,19.35
2016-12-28T10:55:07.691Z,19.44
2016-12-28T10:56:17.649Z,19.44
2016-12-28T10:57:27.608Z,19.38
2016-12-28T10:58:37.570Z,19.49
2016-12-28T10:59:47.563Z,19.44
2016-12-28T11:00:57.836Z,19.42
2016-12-28T11:02:08.098Z,19.47
2016-12-28T11:03:18.361Z,19.38
2016-12-28T11:04:28.329Z,19.41
2016-12-28T11:05:37.977Z,19.44
2016-12-28T11:06:48.242Z,19.38
2016-12-28T11:07:58.198Z,19.37
2016-12-28T11:09:08.160Z,19.37
2016-12-28T11:10:18.422Z,19.32
2016-12-28T11:11:28.689Z,19.44
2016-12-28T11:12:38.669Z,19.32
2016-12-28T11:13:48.617Z,19.37
2016-12-28T11:14:58.559Z,19.29
2016-12-28T11:16:08.841Z,19.3
2016-12-28T11:17:18.793Z,19.37
2016-12-28T11:18:28.758Z,19.34
2016-12-28T11:19:38.716Z,19.34
2016-12-28T11:20:48.672Z,19.3
2016-12-28T11:21:58.018Z,19.27
2016-12-28T11:23:07.982Z,19.32
2016-12-28T11:24:18.252Z,19.38
2016-12-28T11:25:28.523Z,19.32
2016-12-28T11:26:38.489Z,19.29
2016-12-28T11:27:48.454Z,19.3
2016-12-28T11:28:58.708Z,19.27
2016-12-28T11:30:08.657Z,19.37
2016-12-28T11:31:18.619Z,19.32
2016-12-28T11:32:28.571Z,19.3
2016-12-28T11:33:38.524Z,19.35
2016-12-28T11:34:48.469Z,19.41
2016-12-28T11:35:58.738Z,19.32
2016-12-28T11:37:08.989Z,19.26
2016-12-28T11:38:19.246Z,19.3
2016-12-28T11:39:29.201Z,19.34
2016-12-28T11:40:39.160Z,19.29
2016-12-28T11:41:49.140Z,19.27
2016-12-28T11:42:58.785Z,19.26
2016-12-28T11:44:08.748Z,19.24
2016-12-28T11:45:18.707Z,19.3
2016-12-28T11:46:28.980Z,19.3
2016-12-28T11:47:38.305Z,19.29
2016-12-28T11:48:48.257Z,19.32
2016-12-28T11:49:58.548Z,19.34
2016-12-28T11:51:08.513Z,19.34
2016-12-28T11:52:18.808Z,19.3
2016-12-28T11:53:29.245Z,19.35
2016-12-28T11:54:38.787Z,19.27
2016-12-28T11:55:49.072Z,19.32
2016-12-28T11:56:59.350Z,19.35
2016-12-28T11:58:10.033Z,19.35
2016-12-28T11:59:20.714Z,19.34
2016-12-28T12:00:30.614Z,19.27
2016-12-28T12:01:41.325Z,19.34
2016-12-28T12:02:52.011Z,19.34
2016-12-28T12:04:02.303Z,19.29
2016-12-28T12:05:12.642Z,19.37
2016-12-28T12:06:22.947Z,19.35
2016-12-28T12:07:33.673Z,19.26
2016-12-28T12:08:44.013Z,19.34
2016-12-28T12:09:53.953Z,19.35
2016-12-28T12:11:04.631Z,19.27
2016-12-28T12:12:14.528Z,19.34
2016-12-28T12:13:24.814Z,19.32
2016-12-28T12:14:34.330Z,19.35
2016-12-28T12:15:44.240Z,19.3
2016-12-28T12:16:54.920Z,19.38
2016-12-28T12:18:04.427Z,19.34
2016-12-28T12:19:13.945Z,19.39
2016-12-28T12:20:24.247Z,19.27
2016-12-28T12:21:34.527Z,19.32
2016-12-28T12:22:44.424Z,19.3
2016-12-28T12:23:55.103Z,19.39
2016-12-28T12:25:05.805Z,19.27
2016-12-28T12:26:16.492Z,19.27
2016-12-28T12:27:27.232Z,19.29
2016-12-28T12:28:37.542Z,19.26
2016-12-28T12:29:48.235Z,19.34
2016-12-28T12:30:58.907Z,19.24
2016-12-28T12:32:09.610Z,19.34
2016-12-28T12:33:20.302Z,19.27
2016-12-28T12:34:30.601Z,19.32
2016-12-28T12:35:41.232Z,19.41
2016-12-28T12:36:51.916Z,19.26
2016-12-28T12:38:02.598Z,19.34
2016-12-28T12:39:13.289Z,19.27
2016-12-28T12:40:23.974Z,19.35
2016-12-28T12:41:34.304Z,19.32
2016-12-28T12:42:44.979Z,19.32
2016-12-28T12:43:55.668Z,19.32
2016-12-28T12:45:06.365Z,19.32
2016-12-28T12:46:17.040Z,19.37
2016-12-28T12:47:27.719Z,19.38
2016-12-28T12:48:38.408Z,19.26
2016-12-28T12:49:49.101Z,19.29
2016-12-28T12:50:59.381Z,19.38
2016-12-28T12:52:09.685Z,19.34
2016-12-28T12:53:19.573Z,19.34
2016-12-28T12:54:29.858Z,19.26
2016-12-28T12:55:40.584Z,19.24
2016-12-28T12:56:51.269Z,19.27
2016-12-28T12:58:01.942Z,19.29
2016-12-28T12:59:12.227Z,19.34
2016-12-28T13:00:22.912Z,19.26
2016-12-28T13:01:33.235Z,19.32
2016-12-28T13:02:43.540Z,19.35
2016-12-28T13:03:54.225Z,19.32
2016-12-28T13:05:04.922Z,19.34
2016-12-28T13:06:14.810Z,19.34
2016-12-28T13:07:25.107Z,19.3
2016-12-28T13:08:35.399Z,19.35
2016-12-28T13:09:46.120Z,19.27
2016-12-28T13:10:56.417Z,19.3
2016-12-28T13:12:06.318Z,19.34
2016-12-28T13:13:17.005Z,19.29
2016-12-28T13:14:27.684Z,19.32
2016-12-28T13:15:37.979Z,19.27
2016-12-28T13:16:48.276Z,19.34
2016-12-28T13:17:58.996Z,19.27
2016-12-28T13:19:08.526Z,19.3
2016-12-28T13:20:18.824Z,19.29
2016-12-28T13:21:29.505Z,19.32
2016-12-28T13:22:40.196Z,19.26
2016-12-28T13:23:50.890Z,19.24
2016-12-28T13:25:01.191Z,19.29
2016-12-28T13:26:11.880Z,19.23
2016-12-28T13:27:22.567Z,19.34
2016-12-28T13:28:32.890Z,19.27
2016-12-28T13:29:43.572Z,19.27
2016-12-28T13:30:53.870Z,19.27
2016-12-28T13:32:04.583Z,19.3
2016-12-28T13:33:14.489Z,19.24
2016-12-28T13:34:24.385Z,19.26
2016-12-28T13:35:34.664Z,19.29
2016-12-28T13:36:45.368Z,19.23
2016-12-28T13:37:56.052Z,19.34
2016-12-28T13:39:06.335Z,19.3
2016-12-28T13:40:17.019Z,19.29
2016-12-28T13:41:26.555Z,19.32
2016-12-28T13:42:36.955Z,19.35
2016-12-28T13:43:47.630Z,19.34
2016-12-28T13:44:57.923Z,19.3
2016-12-28T13:46:08.218Z,19.34
2016-12-28T13:47:18.906Z,19.35
2016-12-28T13:48:29.594Z,19.27
2016-12-28T13:49:39.895Z,19.32
2016-12-28T13:50:50.599Z,19.27
2016-12-28T13:52:00.900Z,19.34
2016-12-28T13:53:11.588Z,19.34
2016-12-28T13:54:22.266Z,19.35
2016-12-28T13:55:32.573Z,19.27
2016-12-28T13:56:43.274Z,19.34
2016-12-28T13:57:53.972Z,19.3
2016-12-28T13:59:04.669Z,19.37
2016-12-28T14:00:15.344Z,19.24
2016-12-28T14:01:25.638Z,19.34
2016-12-28T14:02:35.939Z,19.32
2016-12-28T14:03:46.630Z,19.34
2016-12-28T14:04:57.321Z,19.27
2016-12-28T14:06:07.219Z,19.26
2016-12-28T14:07:17.514Z,19.26
2016-12-28T14:08:28.210Z,19.29
2016-12-28T14:09:38.495Z,19.3
2016-12-28T14:10:49.196Z,19.34
2016-12-28T14:11:59.494Z,19.27
2016-12-28T14:13:10.201Z,19.35
2016-12-28T14:14:20.893Z,19.3
2016-12-28T14:15:31.590Z,19.34
2016-12-28T14:16:42.297Z,19.34
2016-12-28T14:17:52.210Z,19.29
2016-12-28T14:19:02.902Z,19.34
2016-12-28T14:20:13.596Z,19.29
2016-12-28T14:21:23.490Z,19.27
2016-12-28T14:22:33.787Z,19.3
2016-12-28T14:23:44.075Z,19.29
2016-12-28T14:24:54.363Z,19.3
2016-12-28T14:26:04.264Z,19.34
2016-12-28T14:27:14.177Z,19.26
2016-12-28T14:28:24.855Z,19.27
2016-12-28T14:29:35.530Z,19.3
2016-12-28T14:30:46.286Z,19.24
2016-12-28T14:31:56.986Z,19.23
2016-12-28T14:33:07.675Z,19.27
2016-12-28T14:34:18.369Z,19.23
2016-12-28T14:35:29.051Z,19.26
2016-12-28T14:36:39.732Z,19.3
2016-12-28T14:37:50.413Z,19.38
2016-12-28T14:39:00.691Z,19.32
2016-12-28T14:40:10.957Z,19.3
2016-12-28T14:41:21.238Z,19.3
2016-12-28T14:42:31.120Z,19.29
2016-12-28T14:43:41.801Z,19.26
2016-12-28T14:44:52.298Z,19.27
2016-12-28T14:46:02.185Z,19.27
2016-12-28T14:47:12.858Z,19.3
2016-12-28T14:48:23.134Z,19.27
2016-12-28T14:49:33.816Z,19.29
2016-12-28T14:50:44.088Z,19.22
2016-12-28T14:51:54.356Z,19.29
2016-12-28T14:53:05.029Z,19.27
2016-12-28T14:54:15.314Z,19.27
2016-12-28T14:55:25.240Z,19.29
2016-12-28T14:56:35.520Z,19.32
2016-12-28T14:57:46.191Z,19.23
2016-12-28T14:58:56.890Z,19.29
2016-12-28T15:00:06.770Z,19.24
2016-12-28T15:01:16.670Z,19.26
2016-12-28T15:02:27.358Z,19.29
2016-12-28T15:03:37.665Z,19.29
2016-12-28T15:04:47.943Z,19.3
2016-12-28T15:05:58.231Z,19.26